Time;durP1;ratioP1;P1;durP2;ratioP2;P2;SDS_P1;SDS_P2;PMS_P1;PMS_P2;Temp;Humidity;BMP_temperature;BMP_pressure;BME280_temperature;BME280_humidity;BME280_pressure;Samples;Min_cycle;Max_cycle;Signal;HPM_P1;HPM_P2
2022/07/09 00:00:45;;;;;;;6.78;2.25;;;;;;;;;;4994313;28;20478;-79
2022/07/09 00:03:11;;;;;;;4.95;2.42;;;;;;;;;;4996371;28;20045;-80
2022/07/09 00:05:37;;;;;;;7.95;2.22;;;;;;;;;;4996332;28;20037;-76
2022/07/09 00:08:03;;;;;;;6.10;2.40;;;;;;;;;;4995231;28;20022;-78
2022/07/09 00:10:30;;;;;;;6.85;2.10;;;;;;;;;;4995175;28;20038;-78
2022/07/09 00:12:56;;;;;;;6.03;1.95;;;;;;;;;;4994208;28;20030;-78
2022/07/09 00:15:24;;;;;;;4.55;2.00;;;;;;;;;;4994238;28;20125;-80
2022/07/09 00:17:50;;;;;;;5.47;1.85;;;;;;;;;;4994087;28;20027;-78
2022/07/09 00:20:16;;;;;;;6.20;2.10;;;;;;;;;;4995997;28;20038;-79
2022/07/09 00:22:43;;;;;;;6.82;2.42;;;;;;;;;;4995962;28;20443;-78
2022/07/09 00:25:09;;;;;;;8.07;2.30;;;;;;;;;;4994295;28;20026;-80
2022/07/09 00:27:35;;;;;;;6.45;1.95;;;;;;;;;;4994116;28;20514;-79
2022/07/09 00:30:01;;;;;;;5.70;2.00;;;;;;;;;;4993502;28;20080;-78
2022/07/09 00:32:28;;;;;;;3.80;1.90;;;;;;;;;;4995318;28;20033;-79
2022/07/09 00:34:54;;;;;;;6.35;2.10;;;;;;;;;;4993992;28;20027;-77
2022/07/09 00:37:20;;;;;;;5.60;1.88;;;;;;;;;;4994131;28;20023;-77
2022/07/09 00:39:46;;;;;;;6.57;2.53;;;;;;;;;;4993341;28;20022;-78
2022/07/09 00:42:12;;;;;;;6.20;2.50;;;;;;;;;;4993917;28;20042;-76
2022/07/09 00:44:39;;;;;;;6.88;2.35;;;;;;;;;;4994248;28;20030;-76
2022/07/09 00:47:06;;;;;;;5.72;2.25;;;;;;;;;;4995183;28;20077;-76
2022/07/09 00:49:35;;;;;;;5.38;2.20;;;;;;;;;;4993621;28;20054;-78
2022/07/09 00:52:01;;;;;;;5.00;2.50;;;;;;;;;;4992978;28;20554;-79
2022/07/09 00:54:27;;;;;;;9.23;2.33;;;;;;;;;;4993577;28;20030;-79
2022/07/09 00:56:54;;;;;;;6.55;2.78;;;;;;;;;;4994893;28;20026;-76
2022/07/09 00:59:21;;;;;;;7.20;2.67;;;;;;;;;;4993656;28;20505;-79
2022/07/09 01:01:49;;;;;;;7.95;2.70;;;;;;;;;;4993520;28;20028;-76
2022/07/09 01:04:15;;;;;;;5.22;2.58;;;;;;;;;;4993416;28;20026;-75
2022/07/09 01:06:42;;;;;;;5.88;2.72;;;;;;;;;;4993640;28;20054;-79
2022/07/09 01:09:08;;;;;;;6.03;2.92;;;;;;;;;;4994152;28;20042;-79
2022/07/09 01:11:37;;;;;;;8.25;3.40;;;;;;;;;;4994122;28;20069;-79
2022/07/09 01:14:03;;;;;;;4.47;2.80;;;;;;;;;;4993342;28;20455;-78
2022/07/09 01:16:33;;;;;;;6.85;3.10;;;;;;;;;;4994687;28;20466;-79
2022/07/09 01:18:59;;;;;;;5.05;2.67;;;;;;;;;;4993286;28;20126;-78
2022/07/09 01:21:25;;;;;;;6.57;3.22;;;;;;;;;;4994878;28;20022;-79
2022/07/09 01:23:51;;;;;;;7.65;2.90;;;;;;;;;;4993427;28;20026;-78
2022/07/09 01:26:20;;;;;;;6.78;3.42;;;;;;;;;;4993256;28;20029;-76
2022/07/09 01:28:47;;;;;;;4.28;3.00;;;;;;;;;;4994369;28;20118;-78
2022/07/09 01:31:13;;;;;;;4.90;2.83;;;;;;;;;;4993311;28;20030;-78
2022/07/09 01:33:40;;;;;;;6.82;2.90;;;;;;;;;;4993266;28;20022;-75
2022/07/09 01:36:07;;;;;;;7.22;3.22;;;;;;;;;;4993188;28;20034;-79
2022/07/09 01:38:33;;;;;;;7.50;3.60;;;;;;;;;;4994344;28;20030;-77
2022/07/09 01:40:59;;;;;;;6.00;3.10;;;;;;;;;;4992618;28;20033;-79
2022/07/09 01:43:25;;;;;;;6.20;3.10;;;;;;;;;;4992938;28;20487;-78
2022/07/09 01:45:51;;;;;;;6.85;3.17;;;;;;;;;;4993131;28;20026;-79
2022/07/09 01:48:18;;;;;;;5.68;3.00;;;;;;;;;;4995242;28;20034;-78
2022/07/09 01:50:44;;;;;;;6.18;2.97;;;;;;;;;;5013810;28;20371;-78
2022/07/09 01:53:10;;;;;;;4.72;3.03;;;;;;;;;;5013863;28;20097;-75
2022/07/09 01:55:36;;;;;;;6.97;3.15;;;;;;;;;;4996358;28;20038;-77
2022/07/09 01:58:03;;;;;;;9.52;3.10;;;;;;;;;;4996703;28;20545;-79
2022/07/09 02:00:29;;;;;;;5.18;3.10;;;;;;;;;;4995914;28;20022;-76
2022/07/09 02:02:56;;;;;;;4.05;3.03;;;;;;;;;;5017016;28;20080;-76
2022/07/09 02:05:22;;;;;;;8.85;3.42;;;;;;;;;;5017686;28;20032;-76
2022/07/09 02:07:49;;;;;;;6.18;3.00;;;;;;;;;;4999850;28;20041;-77
2022/07/09 02:10:15;;;;;;;6.07;2.88;;;;;;;;;;5017451;28;20049;-80
2022/07/09 02:12:42;;;;;;;8.35;2.92;;;;;;;;;;4999321;28;20064;-79
2022/07/09 02:15:10;;;;;;;10.35;3.38;;;;;;;;;;5017170;28;20060;-78
2022/07/09 02:17:37;;;;;;;6.40;2.80;;;;;;;;;;4999750;28;20034;-76
2022/07/09 02:20:03;;;;;;;4.72;2.58;;;;;;;;;;4999661;28;20161;-77
2022/07/09 02:22:29;;;;;;;6.85;2.85;;;;;;;;;;5017539;28;20022;-79
2022/07/09 02:24:56;;;;;;;6.95;3.10;;;;;;;;;;5000257;28;20029;-77
2022/07/09 02:27:22;;;;;;;5.90;2.90;;;;;;;;;;5017560;28;20083;-78
2022/07/09 02:29:48;;;;;;;7.22;2.85;;;;;;;;;;4999244;28;20041;-79
2022/07/09 02:32:14;;;;;;;6.55;3.13;;;;;;;;;;4999550;28;20033;-76
2022/07/09 02:34:40;;;;;;;6.32;3.03;;;;;;;;;;5017450;28;20371;-80
2022/07/09 02:37:07;;;;;;;5.90;3.15;;;;;;;;;;4999825;28;20018;-79
2022/07/09 02:39:33;;;;;;;6.28;2.88;;;;;;;;;;4999348;28;20483;-79
2022/07/09 02:41:59;;;;;;;9.90;3.45;;;;;;;;;;5016340;28;20028;-77
2022/07/09 02:44:25;;;;;;;8.38;3.72;;;;;;;;;;5000030;28;20430;-76
2022/07/09 02:46:51;;;;;;;6.57;3.20;;;;;;;;;;4998759;28;20068;-79
2022/07/09 02:49:18;;;;;;;6.97;3.15;;;;;;;;;;4995758;28;20137;-78
2022/07/09 02:51:44;;;;;;;6.45;3.50;;;;;;;;;;4995773;28;20045;-78
2022/07/09 02:54:10;;;;;;;5.55;3.05;;;;;;;;;;4996978;28;20019;-76
2022/07/09 02:56:37;;;;;;;4.78;3.13;;;;;;;;;;4995717;28;20060;-78
2022/07/09 02:59:03;;;;;;;6.60;3.25;;;;;;;;;;4995950;28;20030;-80
2022/07/09 03:01:29;;;;;;;7.50;3.47;;;;;;;;;;4997027;28;20529;-80
2022/07/09 03:03:56;;;;;;;10.23;3.55;;;;;;;;;;4995835;28;20046;-78
2022/07/09 03:06:22;;;;;;;9.85;3.50;;;;;;;;;;4997445;28;20105;-77
2022/07/09 03:08:49;;;;;;;5.05;3.20;;;;;;;;;;4995586;28;20038;-79
2022/07/09 03:11:15;;;;;;;6.70;2.88;;;;;;;;;;4996626;28;20030;-76
2022/07/09 03:13:41;;;;;;;6.90;3.15;;;;;;;;;;4995478;28;20389;-79
2022/07/09 03:16:07;;;;;;;6.30;3.20;;;;;;;;;;4995550;28;20033;-76
2022/07/09 03:18:33;;;;;;;7.28;3.30;;;;;;;;;;4995402;28;20032;-79
2022/07/09 03:20:59;;;;;;;7.80;3.40;;;;;;;;;;4997142;28;20110;-75
2022/07/09 03:23:26;;;;;;;5.18;3.22;;;;;;;;;;4997398;28;20072;-77
2022/07/09 03:25:52;;;;;;;6.40;3.55;;;;;;;;;;4996204;28;20029;-80
2022/07/09 03:28:18;;;;;;;7.32;3.47;;;;;;;;;;4996830;28;20037;-78
2022/07/09 03:30:45;;;;;;;7.75;3.80;;;;;;;;;;4995045;28;20084;-79
2022/07/09 03:33:11;;;;;;;6.57;3.50;;;;;;;;;;4995186;28;20023;-79
2022/07/09 03:35:39;;;;;;;6.03;3.53;;;;;;;;;;4994872;28;20476;-76
2022/07/09 03:38:05;;;;;;;7.55;3.70;;;;;;;;;;4994867;28;20510;-80
2022/07/09 03:40:31;;;;;;;5.30;3.58;;;;;;;;;;4995061;28;20050;-77
2022/07/09 03:42:58;;;;;;;6.35;3.60;;;;;;;;;;4994449;28;20510;-78
2022/07/09 03:45:24;;;;;;;5.78;3.30;;;;;;;;;;4994800;28;20056;-76
2022/07/09 03:47:51;;;;;;;6.75;3.50;;;;;;;;;;4994949;28;20030;-78
2022/07/09 03:50:17;;;;;;;8.07;3.72;;;;;;;;;;5014313;28;20144;-76
2022/07/09 03:52:43;;;;;;;8.65;3.70;;;;;;;;;;4997960;28;20459;-78
2022/07/09 03:55:10;;;;;;;7.60;3.97;;;;;;;;;;5016083;28;20431;-77
2022/07/09 03:57:36;;;;;;;7.30;3.78;;;;;;;;;;4998037;28;20062;-78
2022/07/09 04:00:03;;;;;;;10.02;3.55;;;;;;;;;;4998014;28;20028;-78
2022/07/09 04:02:29;;;;;;;6.40;3.65;;;;;;;;;;5015400;28;20064;-79
2022/07/09 04:04:56;;;;;;;7.10;3.78;;;;;;;;;;4997854;28;20510;-80
2022/07/09 04:07:23;;;;;;;7.55;3.65;;;;;;;;;;4997566;28;20022;-79
2022/07/09 04:09:49;;;;;;;6.43;3.60;;;;;;;;;;4997836;28;20069;-77
2022/07/09 04:12:15;;;;;;;7.05;3.42;;;;;;;;;;4997760;28;20033;-76
2022/07/09 04:14:41;;;;;;;7.45;3.40;;;;;;;;;;5014632;28;20536;-79
2022/07/09 04:17:07;;;;;;;6.57;3.35;;;;;;;;;;4997537;28;20060;-78
2022/07/09 04:19:34;;;;;;;9.00;3.22;;;;;;;;;;4997534;28;20075;-76
2022/07/09 04:22:02;;;;;;;5.28;3.10;;;;;;;;;;4997672;28;20025;-79
2022/07/09 04:24:28;;;;;;;6.85;3.22;;;;;;;;;;4997430;28;20033;-76
2022/07/09 04:26:54;;;;;;;7.72;3.08;;;;;;;;;;5014123;28;20026;-80
2022/07/09 04:29:20;;;;;;;7.50;3.05;;;;;;;;;;4997296;28;20423;-79
2022/07/09 04:31:47;;;;;;;5.05;2.67;;;;;;;;;;4997168;28;20109;-76
2022/07/09 04:34:13;;;;;;;9.32;3.15;;;;;;;;;;4997159;28;20036;-79
2022/07/09 04:36:39;;;;;;;6.25;2.38;;;;;;;;;;4997467;28;20117;-79
2022/07/09 04:39:05;;;;;;;7.28;2.88;;;;;;;;;;5014644;28;20026;-76
2022/07/09 04:41:31;;;;;;;7.05;2.90;;;;;;;;;;4996779;28;20117;-79
2022/07/09 04:43:58;;;;;;;6.97;2.92;;;;;;;;;;4996470;28;20037;-78
2022/07/09 04:46:26;;;;;;;7.40;2.90;;;;;;;;;;4997173;28;20062;-80
2022/07/09 04:48:53;;;;;;;8.18;2.65;;;;;;;;;;4994291;28;20082;-76
2022/07/09 04:51:20;;;;;;;6.68;2.63;;;;;;;;;;4993884;28;20129;-76
2022/07/09 04:53:46;;;;;;;7.72;2.60;;;;;;;;;;4993585;28;20035;-79
2022/07/09 04:56:12;;;;;;;6.13;2.13;;;;;;;;;;4993297;28;20065;-77
2022/07/09 04:58:51;;;;;;;10.82;2.40;;;;;;;;;;4994899;28;20541;-79
2022/07/09 05:01:17;;;;;;;6.95;2.47;;;;;;;;;;4993846;28;20432;-79
2022/07/09 05:03:44;;;;;;;8.98;3.00;;;;;;;;;;4993983;28;20061;-77
2022/07/09 05:06:11;;;;;;;6.55;2.67;;;;;;;;;;4986866;28;20053;-78
2022/07/09 05:08:38;;;;;;;8.25;2.80;;;;;;;;;;4982175;28;20018;-77
2022/07/09 05:11:04;;;;;;;7.13;2.95;;;;;;;;;;4980911;28;20027;-76
2022/07/09 05:13:30;;;;;;;4.88;2.40;;;;;;;;;;4981767;28;20533;-75
2022/07/09 05:15:56;;;;;;;5.72;2.28;;;;;;;;;;4994587;28;20033;-75
2022/07/09 05:18:22;;;;;;;7.10;2.72;;;;;;;;;;4992669;28;20030;-77
2022/07/09 05:20:48;;;;;;;7.70;2.30;;;;;;;;;;4993392;28;20027;-77
2022/07/09 05:23:15;;;;;;;5.35;2.38;;;;;;;;;;4993355;28;20040;-76
2022/07/09 05:25:43;;;;;;;9.38;2.90;;;;;;;;;;4997142;28;20023;-79
2022/07/09 05:28:09;;;;;;;7.47;2.33;;;;;;;;;;5000316;28;20027;-78
2022/07/09 05:30:37;;;;;;;7.90;2.88;;;;;;;;;;4995559;28;20034;-80
2022/07/09 05:33:03;;;;;;;9.13;2.30;;;;;;;;;;4993338;28;20031;-81
2022/07/09 05:35:30;;;;;;;7.22;2.10;;;;;;;;;;4994749;28;20034;-88
2022/07/09 05:37:56;;;;;;;4.50;2.00;;;;;;;;;;4997518;28;20120;-82
2022/07/09 05:40:22;;;;;;;4.38;2.03;;;;;;;;;;4999016;28;20379;-79
2022/07/09 05:42:48;;;;;;;4.88;1.83;;;;;;;;;;4997361;28;20443;-79
2022/07/09 05:45:14;;;;;;;4.65;1.92;;;;;;;;;;5004505;28;20023;-76
2022/07/09 05:47:40;;;;;;;7.13;2.20;;;;;;;;;;4997803;28;20399;-79
2022/07/09 05:50:07;;;;;;;4.80;1.80;;;;;;;;;;4998565;28;20058;-76
2022/07/09 05:52:33;;;;;;;7.35;1.90;;;;;;;;;;4997800;28;20113;-79
2022/07/09 05:54:59;;;;;;;7.97;2.20;;;;;;;;;;4997433;28;20032;-76
2022/07/09 05:57:25;;;;;;;6.32;2.13;;;;;;;;;;4998476;28;20026;-75
2022/07/09 05:59:51;;;;;;;6.25;2.00;;;;;;;;;;4998118;28;20467;-75
2022/07/09 06:02:19;;;;;;;4.70;1.75;;;;;;;;;;5008610;28;20049;-77
2022/07/09 06:04:45;;;;;;;7.47;2.00;;;;;;;;;;4997746;28;20038;-78
2022/07/09 06:07:11;;;;;;;4.72;2.05;;;;;;;;;;4997311;28;20037;-77
2022/07/09 06:09:37;;;;;;;7.25;2.40;;;;;;;;;;4996701;28;20041;-76
2022/07/09 06:12:04;;;;;;;7.88;1.75;;;;;;;;;;4996034;28;20114;-75
2022/07/09 06:14:30;;;;;;;4.20;1.73;;;;;;;;;;4996259;28;20041;-77
2022/07/09 06:16:56;;;;;;;5.82;2.00;;;;;;;;;;4996573;28;20030;-78
2022/07/09 06:19:23;;;;;;;4.60;1.80;;;;;;;;;;4995824;28;20407;-76
2022/07/09 06:21:49;;;;;;;3.88;1.17;;;;;;;;;;4997944;28;20027;-79
2022/07/09 06:24:16;;;;;;;6.45;1.45;;;;;;;;;;4996380;28;20443;-88
2022/07/09 06:26:42;;;;;;;6.40;1.63;;;;;;;;;;4996040;28;20113;-75
2022/07/09 06:29:08;;;;;;;6.20;1.60;;;;;;;;;;4997618;28;20132;-77
2022/07/09 06:31:34;;;;;;;4.55;1.40;;;;;;;;;;4997298;28;20029;-79
2022/07/09 06:34:11;;;;;;;6.10;1.73;;;;;;;;;;4997441;28;20053;-89
2022/07/09 06:36:44;;;;;;;5.07;1.60;;;;;;;;;;4997180;28;20026;-90
2022/07/09 06:42:03;;;;;;;4.97;1.42;;;;;;;;;;4998097;28;20045;-77
2022/07/09 06:44:30;;;;;;;4.78;1.67;;;;;;;;;;4996123;28;20054;-78
2022/07/09 06:46:56;;;;;;;4.80;1.40;;;;;;;;;;4997960;28;20168;-78
2022/07/09 06:49:22;;;;;;;6.65;1.67;;;;;;;;;;5006923;28;20053;-77
2022/07/09 06:51:48;;;;;;;3.45;1.40;;;;;;;;;;4999296;28;20021;-79
2022/07/09 06:54:14;;;;;;;5.40;1.52;;;;;;;;;;4999168;28;20033;-84
2022/07/09 06:56:40;;;;;;;4.10;1.40;;;;;;;;;;5016672;28;20022;-88
2022/07/09 06:59:07;;;;;;;8.73;1.95;;;;;;;;;;4999550;28;20030;-82
2022/07/09 07:01:33;;;;;;;6.07;1.63;;;;;;;;;;4999038;28;20108;-79
2022/07/09 07:03:59;;;;;;;4.22;1.60;;;;;;;;;;4999164;28;20033;-78
2022/07/09 07:06:25;;;;;;;3.85;1.33;;;;;;;;;;4998655;28;20025;-77
2022/07/09 07:08:51;;;;;;;8.68;1.73;;;;;;;;;;4998921;28;20132;-77
2022/07/09 07:11:18;;;;;;;5.80;1.50;;;;;;;;;;5016449;28;20026;-81
2022/07/09 07:13:44;;;;;;;12.45;1.60;;;;;;;;;;4998923;28;20474;-75
2022/07/09 07:16:10;;;;;;;3.80;1.05;;;;;;;;;;4998823;28;20426;-79
2022/07/09 07:18:36;;;;;;;5.60;1.63;;;;;;;;;;5016419;28;20076;-82
2022/07/09 07:21:03;;;;;;;5.57;1.48;;;;;;;;;;5016546;28;20026;-83
2022/07/09 07:23:31;;;;;;;5.65;1.80;;;;;;;;;;4999993;28;20060;-87
2022/07/09 07:25:58;;;;;;;4.60;1.40;;;;;;;;;;4998267;28;20041;-74
2022/07/09 07:28:24;;;;;;;4.82;1.90;;;;;;;;;;5016313;28;20022;-80
2022/07/09 07:30:50;;;;;;;4.35;1.60;;;;;;;;;;4998460;28;20034;-73
2022/07/09 07:33:18;;;;;;;3.67;1.27;;;;;;;;;;5015440;28;20479;-75
2022/07/09 07:35:45;;;;;;;4.30;1.58;;;;;;;;;;4998290;28;20125;-75
2022/07/09 07:38:11;;;;;;;6.85;1.50;;;;;;;;;;5015889;28;20022;-74
2022/07/09 07:40:38;;;;;;;5.30;1.45;;;;;;;;;;5020405;28;20419;-77
2022/07/09 07:43:05;;;;;;;5.75;1.55;;;;;;;;;;5010552;28;20505;-76
2022/07/09 07:45:32;;;;;;;3.15;1.42;;;;;;;;;;5007121;28;20029;-76
2022/07/09 07:48:00;;;;;;;5.63;1.77;;;;;;;;;;5008522;28;20057;-76
2022/07/09 07:50:28;;;;;;;5.63;1.63;;;;;;;;;;5000745;28;20041;-76
2022/07/09 07:52:55;;;;;;;4.70;1.92;;;;;;;;;;5016799;28;20034;-76
2022/07/09 07:55:22;;;;;;;5.38;1.80;;;;;;;;;;5026229;28;20081;-76
2022/07/09 07:57:49;;;;;;;6.07;1.65;;;;;;;;;;4999037;28;20022;-76
2022/07/09 08:00:15;;;;;;;4.88;1.77;;;;;;;;;;4997181;28;20037;-74
2022/07/09 08:02:41;;;;;;;5.65;1.98;;;;;;;;;;5015371;28;20030;-76
2022/07/09 08:05:07;;;;;;;4.32;1.75;;;;;;;;;;5015214;28;20026;-73
2022/07/09 08:07:33;;;;;;;9.95;1.70;;;;;;;;;;5015434;28;20030;-87
2022/07/09 08:09:59;;;;;;;4.57;1.70;;;;;;;;;;4997769;28;20061;-79
2022/07/09 08:12:26;;;;;;;6.35;1.52;;;;;;;;;;4997444;28;20022;-79
2022/07/09 08:14:52;;;;;;;5.00;1.58;;;;;;;;;;5015075;28;20026;-79
2022/07/09 08:17:18;;;;;;;3.58;1.40;;;;;;;;;;4997277;28;20546;-79
2022/07/09 08:19:44;;;;;;;4.65;1.30;;;;;;;;;;4997666;28;20018;-80
2022/07/09 08:22:10;;;;;;;4.43;1.65;;;;;;;;;;5015281;28;20022;-79
2022/07/09 08:24:37;;;;;;;4.88;1.50;;;;;;;;;;4997568;28;20071;-79
2022/07/09 08:27:03;;;;;;;3.28;1.08;;;;;;;;;;4997575;28;20048;-80
2022/07/09 08:29:29;;;;;;;2.53;1.05;;;;;;;;;;4996676;28;20044;-80
2022/07/09 08:31:55;;;;;;;5.07;1.10;;;;;;;;;;4997257;28;20026;-79
2022/07/09 08:34:22;;;;;;;3.38;0.95;;;;;;;;;;4997455;28;20040;-79
2022/07/09 08:36:48;;;;;;;2.83;1.10;;;;;;;;;;4997664;28;20029;-78
2022/07/09 08:39:14;;;;;;;2.95;1.02;;;;;;;;;;4997607;28;20513;-79
2022/07/09 08:41:40;;;;;;;3.45;0.90;;;;;;;;;;5015425;28;20030;-79
2022/07/09 08:44:10;;;;;;;4.47;1.17;;;;;;;;;;4997055;28;20026;-82
2022/07/09 08:46:36;;;;;;;6.07;0.90;;;;;;;;;;4997171;28;20076;-80
2022/07/09 08:49:04;;;;;;;2.28;0.80;;;;;;;;;;4996891;28;20042;-78
2022/07/09 08:51:30;;;;;;;8.80;0.90;;;;;;;;;;4997103;28;20100;-79
2022/07/09 08:53:57;;;;;;;3.80;0.73;;;;;;;;;;4997090;28;20494;-79
2022/07/09 08:56:23;;;;;;;3.10;0.75;;;;;;;;;;4995157;28;20387;-78
2022/07/09 08:58:49;;;;;;;1.98;0.60;;;;;;;;;;5018172;28;20080;-76
2022/07/09 09:01:17;;;;;;;4.10;0.60;;;;;;;;;;5010537;28;20079;-82
2022/07/09 09:03:43;;;;;;;4.15;0.68;;;;;;;;;;5009493;28;20026;-81
2022/07/09 09:06:10;;;;;;;2.90;0.90;;;;;;;;;;5005091;28;20040;-77
2022/07/09 09:08:37;;;;;;;5.30;0.77;;;;;;;;;;5020655;28;20391;-75
2022/07/09 09:11:08;;;;;;;2.80;0.60;;;;;;;;;;5002933;28;20482;-76
2022/07/09 09:13:37;;;;;;;2.00;0.52;;;;;;;;;;5014637;28;20398;-76
2022/07/09 09:16:04;;;;;;;3.55;0.60;;;;;;;;;;5032499;28;20098;-76
2022/07/09 09:18:30;;;;;;;2.35;0.65;;;;;;;;;;5033602;28;20437;-76
2022/07/09 09:21:02;;;;;;;2.55;0.60;;;;;;;;;;5016319;28;20064;-76
2022/07/09 09:23:28;;;;;;;2.92;0.60;;;;;;;;;;5033761;28;20025;-76
2022/07/09 09:25:54;;;;;;;1.70;0.40;;;;;;;;;;5016137;28;20040;-75
2022/07/09 09:28:20;;;;;;;1.92;0.50;;;;;;;;;;5033494;28;20466;-77
2022/07/09 09:30:46;;;;;;;1.63;0.57;;;;;;;;;;5015445;28;20037;-79
2022/07/09 09:33:15;;;;;;;4.18;0.70;;;;;;;;;;5016349;28;20030;-76
2022/07/09 09:35:45;;;;;;;2.72;0.75;;;;;;;;;;5015776;28;20036;-80
2022/07/09 09:38:11;;;;;;;3.28;0.80;;;;;;;;;;5016218;28;20360;-76
2022/07/09 09:40:37;;;;;;;1.88;0.60;;;;;;;;;;5034227;28;20025;-77
2022/07/09 09:43:04;;;;;;;2.38;0.75;;;;;;;;;;5016075;28;20033;-84
2022/07/09 09:45:30;;;;;;;2.83;0.77;;;;;;;;;;5016205;28;20018;-76
2022/07/09 09:48:00;;;;;;;1.88;0.70;;;;;;;;;;5016068;28;20029;-77
2022/07/09 09:50:26;;;;;;;3.53;0.65;;;;;;;;;;5015863;28;20079;-76
2022/07/09 09:52:54;;;;;;;2.25;0.70;;;;;;;;;;5015435;28;20021;-78
2022/07/09 09:55:21;;;;;;;3.83;0.77;;;;;;;;;;5015508;28;20025;-77
2022/07/09 09:57:48;;;;;;;4.22;0.85;;;;;;;;;;5033309;28;20018;-78
2022/07/09 10:00:15;;;;;;;3.35;0.70;;;;;;;;;;5015531;28;20402;-79
2022/07/09 10:02:45;;;;;;;3.80;1.00;;;;;;;;;;5015697;28;20052;-78
2022/07/09 10:05:12;;;;;;;1.73;0.70;;;;;;;;;;5032957;28;20029;-78
2022/07/09 10:07:39;;;;;;;2.50;0.60;;;;;;;;;;5015583;28;20049;-76
2022/07/09 10:10:06;;;;;;;2.63;0.73;;;;;;;;;;5015774;28;20474;-76
2022/07/09 10:12:36;;;;;;;2.08;0.70;;;;;;;;;;4999446;28;20030;-86
2022/07/09 10:15:08;;;;;;;2.47;0.40;;;;;;;;;;5015849;28;20109;-83
2022/07/09 10:17:41;;;;;;;2.85;0.50;;;;;;;;;;5015885;28;20116;-76
2022/07/09 10:20:07;;;;;;;4.38;0.70;;;;;;;;;;5033292;28;20025;-76
2022/07/09 10:22:44;;;;;;;2.78;0.70;;;;;;;;;;5016063;28;20116;-79
2022/07/09 10:25:23;;;;;;;2.85;0.80;;;;;;;;;;5019167;28;20033;-76
2022/07/09 10:27:50;;;;;;;3.53;0.85;;;;;;;;;;5019272;28;20029;-79
2022/07/09 10:30:26;;;;;;;4.47;0.80;;;;;;;;;;5019173;28;20046;-77
2022/07/09 10:33:05;;;;;;;1.85;0.60;;;;;;;;;;5018833;28;20052;-77
2022/07/09 10:35:42;;;;;;;1.67;0.60;;;;;;;;;;5019919;28;20034;-76
2022/07/09 10:38:08;;;;;;;4.70;0.70;;;;;;;;;;5037172;28;20052;-77
2022/07/09 10:40:47;;;;;;;2.80;0.60;;;;;;;;;;5018793;28;20065;-76
2022/07/09 10:43:14;;;;;;;2.22;0.75;;;;;;;;;;5019407;28;20469;-76
2022/07/09 10:45:44;;;;;;;1.95;0.70;;;;;;;;;;5007685;28;20039;-76
2022/07/09 10:48:11;;;;;;;4.05;0.70;;;;;;;;;;4998666;28;20033;-78
2022/07/09 10:50:39;;;;;;;2.97;0.88;;;;;;;;;;4999025;28;20041;-80
2022/07/09 10:53:05;;;;;;;2.53;0.77;;;;;;;;;;4998645;28;20359;-79
2022/07/09 10:55:32;;;;;;;1.92;0.73;;;;;;;;;;5017299;28;20030;-76
2022/07/09 10:57:58;;;;;;;5.35;0.70;;;;;;;;;;5017399;28;20037;-82
2022/07/09 11:00:28;;;;;;;2.08;0.60;;;;;;;;;;4999432;28;20029;-83
2022/07/09 11:02:54;;;;;;;5.78;0.90;;;;;;;;;;4998785;28;20033;-89
2022/07/09 11:05:24;;;;;;;1.92;0.80;;;;;;;;;;4999652;28;20136;-84
2022/07/09 11:07:57;;;;;;;3.35;0.80;;;;;;;;;;4992940;28;20029;-77
2022/07/09 11:10:23;;;;;;;4.28;0.93;;;;;;;;;;4999122;28;20030;-77
2022/07/09 11:12:49;;;;;;;2.13;0.80;;;;;;;;;;4998860;28;20018;-76
2022/07/09 11:15:22;;;;;;;4.07;0.88;;;;;;;;;;4998010;28;20034;-77
2022/07/09 11:17:55;;;;;;;2.00;0.82;;;;;;;;;;4994265;28;20026;-77
2022/07/09 11:20:21;;;;;;;1.40;0.65;;;;;;;;;;4998498;28;20040;-78
2022/07/09 11:22:48;;;;;;;3.33;0.85;;;;;;;;;;4998520;28;20022;-80
2022/07/09 11:25:18;;;;;;;4.15;1.13;;;;;;;;;;4998113;28;20030;-75
2022/07/09 11:27:44;;;;;;;2.53;1.00;;;;;;;;;;4995763;28;20465;-81
2022/07/09 11:30:14;;;;;;;4.72;0.90;;;;;;;;;;5016509;28;20467;-81
2022/07/09 11:32:42;;;;;;;1.88;0.80;;;;;;;;;;4998307;28;20022;-78
2022/07/09 11:35:08;;;;;;;1.85;0.60;;;;;;;;;;4997815;28;20034;-85
2022/07/09 11:37:34;;;;;;;1.40;0.70;;;;;;;;;;4998626;28;20115;-77
2022/07/09 11:40:00;;;;;;;6.18;1.00;;;;;;;;;;4997836;28;20048;-83
2022/07/09 11:42:27;;;;;;;2.97;0.60;;;;;;;;;;5015421;28;20026;-81
2022/07/09 11:44:58;;;;;;;2.22;0.70;;;;;;;;;;5015957;28;20025;-80
2022/07/09 11:47:35;;;;;;;2.70;0.70;;;;;;;;;;4999306;28;20041;-78
2022/07/09 11:50:11;;;;;;;2.13;0.50;;;;;;;;;;4994151;28;20137;-77
2022/07/09 11:52:44;;;;;;;2.13;0.70;;;;;;;;;;4996398;28;20573;-80
2022/07/09 11:55:11;;;;;;;5.70;0.82;;;;;;;;;;4994085;28;20184;-76
2022/07/09 11:57:37;;;;;;;3.50;0.90;;;;;;;;;;4995493;28;20033;-76
2022/07/09 12:00:08;;;;;;;4.53;0.60;;;;;;;;;;4993381;28;20094;-76
2022/07/09 12:02:38;;;;;;;3.85;0.80;;;;;;;;;;4993951;28;20030;-74
2022/07/09 12:05:05;;;;;;;2.53;0.95;;;;;;;;;;4993627;28;20029;-75
2022/07/09 12:07:32;;;;;;;4.70;0.80;;;;;;;;;;4999662;28;20118;-75
2022/07/09 12:09:58;;;;;;;2.20;0.70;;;;;;;;;;4996707;28;20042;-77
2022/07/09 12:12:25;;;;;;;1.30;0.50;;;;;;;;;;4995621;28;20102;-74
2022/07/09 12:14:51;;;;;;;1.83;0.60;;;;;;;;;;4995836;28;20030;-77
2022/07/09 12:17:23;;;;;;;2.17;0.75;;;;;;;;;;4995944;28;20105;-73
2022/07/09 12:19:49;;;;;;;2.72;0.73;;;;;;;;;;4995243;28;20069;-77
2022/07/09 12:22:15;;;;;;;3.05;0.90;;;;;;;;;;4995627;28;20031;-75
2022/07/09 12:24:42;;;;;;;5.13;0.90;;;;;;;;;;4995551;28;20384;-76
2022/07/09 12:27:08;;;;;;;7.18;0.80;;;;;;;;;;4995297;28;20022;-77
2022/07/09 12:29:34;;;;;;;22.48;1.45;;;;;;;;;;4995091;28;20065;-77
2022/07/09 12:32:00;;;;;;;4.88;0.70;;;;;;;;;;4994377;28;20057;-74
2022/07/09 12:34:26;;;;;;;2.25;0.80;;;;;;;;;;4995183;28;20030;-75
2022/07/09 12:36:53;;;;;;;8.85;0.90;;;;;;;;;;4993418;28;20030;-76
2022/07/09 12:39:19;;;;;;;3.72;0.98;;;;;;;;;;4994808;28;20041;-77
2022/07/09 12:41:45;;;;;;;1.88;0.68;;;;;;;;;;4994958;28;20027;-78
2022/07/09 12:44:11;;;;;;;2.00;0.50;;;;;;;;;;4993365;28;20037;-76
2022/07/09 12:46:37;;;;;;;2.92;0.73;;;;;;;;;;4993134;28;20045;-79
2022/07/09 12:49:03;;;;;;;3.00;0.90;;;;;;;;;;4993945;28;20129;-78
2022/07/09 12:51:30;;;;;;;8.85;0.90;;;;;;;;;;4993745;28;20034;-78
2022/07/09 12:53:56;;;;;;;2.40;0.60;;;;;;;;;;4993480;28;20081;-75
2022/07/09 12:56:22;;;;;;;2.20;0.70;;;;;;;;;;4993563;28;20034;-77
2022/07/09 12:58:48;;;;;;;1.30;0.60;;;;;;;;;;4993470;28;20027;-79
2022/07/09 13:01:14;;;;;;;2.42;1.02;;;;;;;;;;4994206;28;20098;-79
2022/07/09 13:03:41;;;;;;;14.05;1.25;;;;;;;;;;4993629;28;20022;-80
2022/07/09 13:08:52;;;;;;;2.58;0.80;;;;;;;;;;4995470;28;20076;-78
2022/07/09 13:11:19;;;;;;;2.67;0.80;;;;;;;;;;4992839;28;20034;-79
2022/07/09 13:13:45;;;;;;;2.25;0.70;;;;;;;;;;4993398;28;20019;-81
2022/07/09 13:16:11;;;;;;;2.05;0.80;;;;;;;;;;4993473;28;20413;-78
2022/07/09 13:18:37;;;;;;;1.17;0.68;;;;;;;;;;4993308;28;20026;-79
2022/07/09 13:21:03;;;;;;;3.90;0.80;;;;;;;;;;4993059;28;20041;-79
2022/07/09 13:23:29;;;;;;;4.40;1.00;;;;;;;;;;4994285;28;20027;-78
2022/07/09 13:25:55;;;;;;;3.67;1.00;;;;;;;;;;4999173;28;20034;-76
2022/07/09 13:28:22;;;;;;;3.15;0.80;;;;;;;;;;4993452;28;20476;-76
2022/07/09 13:30:49;;;;;;;3.10;0.95;;;;;;;;;;4995117;28;20030;-77
2022/07/09 13:33:15;;;;;;;2.58;0.88;;;;;;;;;;4993351;28;20038;-80
2022/07/09 13:35:41;;;;;;;3.28;0.88;;;;;;;;;;4993052;28;20026;-78
2022/07/09 13:38:08;;;;;;;2.60;0.80;;;;;;;;;;4993202;28;20033;-77
2022/07/09 13:40:34;;;;;;;1.98;0.80;;;;;;;;;;4992354;28;20372;-78
2022/07/09 13:43:00;;;;;;;2.67;1.00;;;;;;;;;;4994232;28;20077;-79
2022/07/09 13:45:29;;;;;;;2.38;0.75;;;;;;;;;;4993211;28;20031;-77
2022/07/09 13:47:56;;;;;;;4.43;1.08;;;;;;;;;;4993289;28;20058;-79
2022/07/09 13:50:23;;;;;;;2.17;0.80;;;;;;;;;;5013107;28;20065;-79
2022/07/09 13:52:49;;;;;;;2.72;0.80;;;;;;;;;;4997397;28;20028;-79
2022/07/09 13:55:15;;;;;;;2.25;0.90;;;;;;;;;;5013833;28;20045;-78
2022/07/09 13:57:42;;;;;;;2.10;1.05;;;;;;;;;;4997052;28;20122;-79
2022/07/09 14:00:08;;;;;;;1.65;0.90;;;;;;;;;;5018439;28;20026;-78
2022/07/09 14:02:35;;;;;;;3.08;0.93;;;;;;;;;;5000131;28;20022;-78
2022/07/09 14:05:02;;;;;;;3.33;0.88;;;;;;;;;;5018352;28;20033;-77
2022/07/09 14:07:28;;;;;;;5.97;1.10;;;;;;;;;;5000084;28;20376;-79
2022/07/09 14:09:55;;;;;;;1.52;0.70;;;;;;;;;;5017214;28;20034;-79
2022/07/09 14:12:23;;;;;;;2.50;0.70;;;;;;;;;;4999680;28;20037;-79
2022/07/09 14:14:50;;;;;;;1.90;0.80;;;;;;;;;;4999962;28;20124;-79
2022/07/09 14:17:17;;;;;;;2.83;0.90;;;;;;;;;;5017612;28;20061;-78
2022/07/09 14:19:43;;;;;;;2.08;0.80;;;;;;;;;;4999841;28;20121;-82
2022/07/09 14:22:09;;;;;;;2.67;0.80;;;;;;;;;;5017637;28;20030;-77
2022/07/09 14:24:35;;;;;;;1.70;0.80;;;;;;;;;;5017653;28;20235;-77
2022/07/09 14:27:02;;;;;;;2.05;0.75;;;;;;;;;;5000268;28;20033;-80
2022/07/09 14:29:28;;;;;;;2.05;0.80;;;;;;;;;;4999570;28;20033;-76
2022/07/09 14:31:54;;;;;;;1.70;0.90;;;;;;;;;;4999633;28;20463;-76
2022/07/09 14:34:21;;;;;;;3.15;0.90;;;;;;;;;;4999410;28;20021;-78
2022/07/09 14:36:50;;;;;;;2.35;0.90;;;;;;;;;;5017583;28;20030;-76
2022/07/09 14:39:16;;;;;;;2.72;0.88;;;;;;;;;;4999501;28;20022;-76
2022/07/09 14:41:43;;;;;;;4.90;0.90;;;;;;;;;;4999129;28;20053;-79
2022/07/09 14:44:10;;;;;;;2.83;0.80;;;;;;;;;;4999420;28;20029;-78
2022/07/09 14:46:37;;;;;;;4.03;0.80;;;;;;;;;;4999382;28;20026;-78